sensor_id;sensor_type;location;lat;lon;timestamp;P1;durP1;ratioP1;P2;durP2;ratioP2
21886;SDS011;11108;49.988;8.182;2023-04-06T00:02:20;1.47;;;1.37;;
21886;SDS011;11108;49.988;8.182;2023-04-06T00:04:46;1.20;;;1.20;;
21886;SDS011;11108;49.988;8.182;2023-04-06T00:07:11;1.60;;;1.53;;
21886;SDS011;11108;49.988;8.182;2023-04-06T00:09:36;1.47;;;1.37;;
21886;SDS011;11108;49.988;8.182;2023-04-06T00:12:01;1.47;;;1.37;;
21886;SDS011;11108;49.988;8.182;2023-04-06T00:14:26;1.53;;;1.43;;
21886;SDS011;11108;49.988;8.182;2023-04-06T00:16:52;1.40;;;1.30;;
21886;SDS011;11108;49.988;8.182;2023-04-06T00:19:17;1.70;;;1.60;;
21886;SDS011;11108;49.988;8.182;2023-04-06T00:21:42;2.10;;;1.20;;
21886;SDS011;11108;49.988;8.182;2023-04-06T00:24:07;1.83;;;1.73;;
21886;SDS011;11108;49.988;8.182;2023-04-06T00:26:33;1.20;;;1.20;;
21886;SDS011;11108;49.988;8.182;2023-04-06T00:28:58;1.60;;;1.50;;
21886;SDS011;11108;49.988;8.182;2023-04-06T00:31:24;1.60;;;1.50;;
21886;SDS011;11108;49.988;8.182;2023-04-06T00:33:49;1.27;;;1.27;;
21886;SDS011;11108;49.988;8.182;2023-04-06T00:36:14;1.70;;;1.60;;
21886;SDS011;11108;49.988;8.182;2023-04-06T00:38:39;1.60;;;1.50;;
21886;SDS011;11108;49.988;8.182;2023-04-06T00:41:05;1.40;;;1.40;;
21886;SDS011;11108;49.988;8.182;2023-04-06T00:43:30;1.50;;;1.50;;
21886;SDS011;11108;49.988;8.182;2023-04-06T00:45:56;1.80;;;1.70;;
21886;SDS011;11108;49.988;8.182;2023-04-06T00:48:21;1.43;;;1.30;;
21886;SDS011;11108;49.988;8.182;2023-04-06T00:50:46;1.83;;;1.70;;
21886;SDS011;11108;49.988;8.182;2023-04-06T00:53:12;1.50;;;1.40;;
21886;SDS011;11108;49.988;8.182;2023-04-06T00:55:38;1.37;;;1.37;;
21886;SDS011;11108;49.988;8.182;2023-04-06T00:58:03;1.70;;;1.60;;
21886;SDS011;11108;49.988;8.182;2023-04-06T01:00:29;1.70;;;1.60;;
21886;SDS011;11108;49.988;8.182;2023-04-06T01:02:54;1.43;;;1.33;;
21886;SDS011;11108;49.988;8.182;2023-04-06T01:05:19;1.23;;;1.23;;
21886;SDS011;11108;49.988;8.182;2023-04-06T01:07:45;1.60;;;1.50;;
21886;SDS011;11108;49.988;8.182;2023-04-06T01:10:10;1.97;;;1.50;;
21886;SDS011;11108;49.988;8.182;2023-04-06T01:12:35;1.30;;;1.30;;
21886;SDS011;11108;49.988;8.182;2023-04-06T01:15:02;1.63;;;1.53;;
21886;SDS011;11108;49.988;8.182;2023-04-06T01:17:28;1.53;;;1.43;;
21886;SDS011;11108;49.988;8.182;2023-04-06T01:19:53;1.50;;;1.40;;
21886;SDS011;11108;49.988;8.182;2023-04-06T01:22:19;1.60;;;1.53;;
21886;SDS011;11108;49.988;8.182;2023-04-06T01:24:44;1.80;;;1.70;;
21886;SDS011;11108;49.988;8.182;2023-04-06T01:27:10;1.30;;;1.20;;
21886;SDS011;11108;49.988;8.182;2023-04-06T01:29:35;1.70;;;1.60;;
21886;SDS011;11108;49.988;8.182;2023-04-06T01:32:00;1.57;;;1.57;;
21886;SDS011;11108;49.988;8.182;2023-04-06T01:34:26;1.40;;;1.40;;
21886;SDS011;11108;49.988;8.182;2023-04-06T01:36:51;1.70;;;1.60;;
21886;SDS011;11108;49.988;8.182;2023-04-06T01:39:16;1.60;;;1.57;;
21886;SDS011;11108;49.988;8.182;2023-04-06T01:41:41;2.00;;;1.80;;
21886;SDS011;11108;49.988;8.182;2023-04-06T01:44:07;1.90;;;1.63;;
21886;SDS011;11108;49.988;8.182;2023-04-06T01:46:32;1.53;;;1.43;;
21886;SDS011;11108;49.988;8.182;2023-04-06T01:48:57;1.73;;;1.63;;
21886;SDS011;11108;49.988;8.182;2023-04-06T01:51:23;1.87;;;1.67;;
21886;SDS011;11108;49.988;8.182;2023-04-06T01:53:50;2.63;;;1.70;;
21886;SDS011;11108;49.988;8.182;2023-04-06T01:56:15;1.77;;;1.67;;
21886;SDS011;11108;49.988;8.182;2023-04-06T01:58:40;1.57;;;1.47;;
21886;SDS011;11108;49.988;8.182;2023-04-06T02:01:05;1.63;;;1.53;;
21886;SDS011;11108;49.988;8.182;2023-04-06T02:03:30;1.80;;;1.70;;
21886;SDS011;11108;49.988;8.182;2023-04-06T02:05:56;1.23;;;1.23;;
21886;SDS011;11108;49.988;8.182;2023-04-06T02:08:21;1.47;;;1.47;;
21886;SDS011;11108;49.988;8.182;2023-04-06T02:10:46;1.33;;;1.33;;
21886;SDS011;11108;49.988;8.182;2023-04-06T02:13:12;1.60;;;1.50;;
21886;SDS011;11108;49.988;8.182;2023-04-06T02:15:37;2.17;;;1.70;;
21886;SDS011;11108;49.988;8.182;2023-04-06T02:18:02;1.80;;;1.70;;
21886;SDS011;11108;49.988;8.182;2023-04-06T02:20:27;1.40;;;1.40;;
21886;SDS011;11108;49.988;8.182;2023-04-06T02:22:53;1.53;;;1.53;;
21886;SDS011;11108;49.988;8.182;2023-04-06T02:25:18;1.57;;;1.37;;
21886;SDS011;11108;49.988;8.182;2023-04-06T02:27:43;1.50;;;1.40;;
21886;SDS011;11108;49.988;8.182;2023-04-06T02:30:08;1.70;;;1.60;;
21886;SDS011;11108;49.988;8.182;2023-04-06T02:32:34;1.63;;;1.57;;
21886;SDS011;11108;49.988;8.182;2023-04-06T02:34:59;1.90;;;1.70;;
21886;SDS011;11108;49.988;8.182;2023-04-06T02:37:25;1.77;;;1.37;;
21886;SDS011;11108;49.988;8.182;2023-04-06T02:39:50;1.40;;;1.40;;
21886;SDS011;11108;49.988;8.182;2023-04-06T02:42:15;1.30;;;1.30;;
21886;SDS011;11108;49.988;8.182;2023-04-06T02:44:41;2.00;;;1.67;;
21886;SDS011;11108;49.988;8.182;2023-04-06T02:47:06;2.00;;;1.90;;
21886;SDS011;11108;49.988;8.182;2023-04-06T02:49:32;1.20;;;1.20;;
21886;SDS011;11108;49.988;8.182;2023-04-06T02:51:57;1.50;;;1.50;;
21886;SDS011;11108;49.988;8.182;2023-04-06T02:54:22;1.30;;;1.30;;
21886;SDS011;11108;49.988;8.182;2023-04-06T02:56:47;1.60;;;1.60;;
21886;SDS011;11108;49.988;8.182;2023-04-06T02:59:13;1.90;;;1.80;;
21886;SDS011;11108;49.988;8.182;2023-04-06T03:01:38;1.50;;;1.40;;
21886;SDS011;11108;49.988;8.182;2023-04-06T03:04:03;1.67;;;1.57;;
21886;SDS011;11108;49.988;8.182;2023-04-06T03:06:28;1.43;;;1.40;;
21886;SDS011;11108;49.988;8.182;2023-04-06T03:08:54;1.43;;;1.43;;
21886;SDS011;11108;49.988;8.182;2023-04-06T03:11:19;1.60;;;1.50;;
21886;SDS011;11108;49.988;8.182;2023-04-06T03:13:45;1.47;;;1.47;;
21886;SDS011;11108;49.988;8.182;2023-04-06T03:16:10;1.67;;;1.57;;
21886;SDS011;11108;49.988;8.182;2023-04-06T03:18:36;1.70;;;1.60;;
21886;SDS011;11108;49.988;8.182;2023-04-06T03:21:01;1.67;;;1.57;;
21886;SDS011;11108;49.988;8.182;2023-04-06T03:23:26;1.93;;;1.83;;
21886;SDS011;11108;49.988;8.182;2023-04-06T03:25:51;1.80;;;1.70;;
21886;SDS011;11108;49.988;8.182;2023-04-06T03:28:17;2.10;;;2.00;;
21886;SDS011;11108;49.988;8.182;2023-04-06T03:30:42;1.63;;;1.63;;
21886;SDS011;11108;49.988;8.182;2023-04-06T03:33:07;2.07;;;1.90;;
21886;SDS011;11108;49.988;8.182;2023-04-06T03:35:32;1.70;;;1.60;;
21886;SDS011;11108;49.988;8.182;2023-04-06T03:37:58;1.87;;;1.77;;
21886;SDS011;11108;49.988;8.182;2023-04-06T03:40:23;1.53;;;1.47;;
21886;SDS011;11108;49.988;8.182;2023-04-06T03:42:48;1.87;;;1.77;;
21886;SDS011;11108;49.988;8.182;2023-04-06T03:45:13;1.70;;;1.70;;
21886;SDS011;11108;49.988;8.182;2023-04-06T03:47:39;1.90;;;1.80;;
21886;SDS011;11108;49.988;8.182;2023-04-06T03:50:04;2.00;;;1.90;;
21886;SDS011;11108;49.988;8.182;2023-04-06T03:52:30;2.10;;;1.90;;
21886;SDS011;11108;49.988;8.182;2023-04-06T03:54:55;1.70;;;1.60;;
21886;SDS011;11108;49.988;8.182;2023-04-06T03:57:20;2.10;;;2.00;;
21886;SDS011;11108;49.988;8.182;2023-04-06T03:59:45;1.60;;;1.50;;
21886;SDS011;11108;49.988;8.182;2023-04-06T04:02:11;1.93;;;1.83;;
21886;SDS011;11108;49.988;8.182;2023-04-06T04:04:36;1.80;;;1.80;;
21886;SDS011;11108;49.988;8.182;2023-04-06T04:07:01;2.00;;;1.90;;
21886;SDS011;11108;49.988;8.182;2023-04-06T04:09:26;1.60;;;1.50;;
21886;SDS011;11108;49.988;8.182;2023-04-06T04:11:51;1.87;;;1.77;;
21886;SDS011;11108;49.988;8.182;2023-04-06T04:14:17;1.70;;;1.60;;
21886;SDS011;11108;49.988;8.182;2023-04-06T04:16:42;1.80;;;1.70;;
21886;SDS011;11108;49.988;8.182;2023-04-06T04:19:07;2.00;;;1.77;;
21886;SDS011;11108;49.988;8.182;2023-04-06T04:21:32;1.80;;;1.70;;
21886;SDS011;11108;49.988;8.182;2023-04-06T04:23:58;1.73;;;1.63;;
21886;SDS011;11108;49.988;8.182;2023-04-06T04:26:23;1.73;;;1.63;;
21886;SDS011;11108;49.988;8.182;2023-04-06T04:28:48;1.80;;;1.70;;
21886;SDS011;11108;49.988;8.182;2023-04-06T04:31:13;1.43;;;1.43;;
21886;SDS011;11108;49.988;8.182;2023-04-06T04:33:39;1.67;;;1.57;;
21886;SDS011;11108;49.988;8.182;2023-04-06T04:36:04;2.53;;;1.70;;
21886;SDS011;11108;49.988;8.182;2023-04-06T04:38:30;1.80;;;1.63;;
21886;SDS011;11108;49.988;8.182;2023-04-06T04:40:55;1.60;;;1.57;;
21886;SDS011;11108;49.988;8.182;2023-04-06T04:43:20;1.70;;;1.60;;
21886;SDS011;11108;49.988;8.182;2023-04-06T04:45:45;1.60;;;1.60;;
21886;SDS011;11108;49.988;8.182;2023-04-06T04:48:11;1.43;;;1.43;;
21886;SDS011;11108;49.988;8.182;2023-04-06T04:50:36;3.60;;;1.97;;
21886;SDS011;11108;49.988;8.182;2023-04-06T04:53:01;1.60;;;1.50;;
21886;SDS011;11108;49.988;8.182;2023-04-06T04:55:27;2.10;;;2.00;;
21886;SDS011;11108;49.988;8.182;2023-04-06T04:57:52;1.80;;;1.70;;
21886;SDS011;11108;49.988;8.182;2023-04-06T05:00:18;1.60;;;1.50;;
21886;SDS011;11108;49.988;8.182;2023-04-06T05:02:43;1.73;;;1.63;;
21886;SDS011;11108;49.988;8.182;2023-04-06T05:05:08;1.87;;;1.77;;
21886;SDS011;11108;49.988;8.182;2023-04-06T05:07:34;2.00;;;1.83;;
21886;SDS011;11108;49.988;8.182;2023-04-06T05:09:59;1.93;;;1.83;;
21886;SDS011;11108;49.988;8.182;2023-04-06T05:12:24;2.47;;;1.90;;
21886;SDS011;11108;49.988;8.182;2023-04-06T05:14:50;2.53;;;2.17;;
21886;SDS011;11108;49.988;8.182;2023-04-06T05:17:15;1.50;;;1.50;;
21886;SDS011;11108;49.988;8.182;2023-04-06T05:19:40;1.60;;;1.50;;
21886;SDS011;11108;49.988;8.182;2023-04-06T05:22:06;2.03;;;1.90;;
21886;SDS011;11108;49.988;8.182;2023-04-06T05:24:31;1.77;;;1.70;;
21886;SDS011;11108;49.988;8.182;2023-04-06T05:26:56;2.20;;;2.10;;
21886;SDS011;11108;49.988;8.182;2023-04-06T05:29:21;2.13;;;2.00;;
21886;SDS011;11108;49.988;8.182;2023-04-06T05:31:47;1.57;;;1.50;;
21886;SDS011;11108;49.988;8.182;2023-04-06T05:34:12;1.57;;;1.57;;
21886;SDS011;11108;49.988;8.182;2023-04-06T05:36:38;1.63;;;1.53;;
21886;SDS011;11108;49.988;8.182;2023-04-06T05:39:03;1.70;;;1.60;;
21886;SDS011;11108;49.988;8.182;2023-04-06T05:41:28;1.30;;;1.30;;
21886;SDS011;11108;49.988;8.182;2023-04-06T05:43:53;2.20;;;1.70;;
21886;SDS011;11108;49.988;8.182;2023-04-06T05:46:19;2.13;;;1.80;;
21886;SDS011;11108;49.988;8.182;2023-04-06T05:48:44;1.93;;;1.83;;
21886;SDS011;11108;49.988;8.182;2023-04-06T05:51:10;3.50;;;1.70;;
21886;SDS011;11108;49.988;8.182;2023-04-06T05:53:35;1.47;;;1.33;;
21886;SDS011;11108;49.988;8.182;2023-04-06T05:56:01;2.57;;;1.70;;
21886;SDS011;11108;49.988;8.182;2023-04-06T05:58:26;2.53;;;1.60;;
21886;SDS011;11108;49.988;8.182;2023-04-06T06:00:56;1.80;;;1.70;;
21886;SDS011;11108;49.988;8.182;2023-04-06T06:03:21;2.70;;;2.10;;
21886;SDS011;11108;49.988;8.182;2023-04-06T06:05:47;1.80;;;1.70;;
21886;SDS011;11108;49.988;8.182;2023-04-06T06:08:12;1.73;;;1.63;;
21886;SDS011;11108;49.988;8.182;2023-04-06T06:10:38;1.80;;;1.70;;
21886;SDS011;11108;49.988;8.182;2023-04-06T06:13:04;1.90;;;1.80;;
21886;SDS011;11108;49.988;8.182;2023-04-06T06:15:29;2.47;;;2.27;;
21886;SDS011;11108;49.988;8.182;2023-04-06T06:17:54;1.80;;;1.70;;
21886;SDS011;11108;49.988;8.182;2023-04-06T06:20:20;2.33;;;1.57;;
21886;SDS011;11108;49.988;8.182;2023-04-06T06:22:45;3.63;;;1.87;;
21886;SDS011;11108;49.988;8.182;2023-04-06T06:25:10;1.80;;;1.70;;
21886;SDS011;11108;49.988;8.182;2023-04-06T06:27:35;2.57;;;1.80;;
21886;SDS011;11108;49.988;8.182;2023-04-06T06:30:01;1.90;;;1.70;;
21886;SDS011;11108;49.988;8.182;2023-04-06T06:32:27;2.70;;;1.80;;
21886;SDS011;11108;49.988;8.182;2023-04-06T06:34:52;2.33;;;1.60;;
21886;SDS011;11108;49.988;8.182;2023-04-06T06:37:17;2.20;;;1.83;;
21886;SDS011;11108;49.988;8.182;2023-04-06T06:39:42;1.90;;;1.80;;
21886;SDS011;11108;49.988;8.182;2023-04-06T06:42:08;2.30;;;1.57;;
21886;SDS011;11108;49.988;8.182;2023-04-06T06:44:33;1.73;;;1.63;;
21886;SDS011;11108;49.988;8.182;2023-04-06T06:46:58;2.73;;;1.90;;
21886;SDS011;11108;49.988;8.182;2023-04-06T06:49:23;2.43;;;1.87;;
21886;SDS011;11108;49.988;8.182;2023-04-06T06:51:49;4.67;;;1.93;;
21886;SDS011;11108;49.988;8.182;2023-04-06T06:54:14;1.70;;;1.60;;
21886;SDS011;11108;49.988;8.182;2023-04-06T06:56:39;2.40;;;1.87;;
21886;SDS011;11108;49.988;8.182;2023-04-06T06:59:05;2.97;;;1.70;;
21886;SDS011;11108;49.988;8.182;2023-04-06T07:01:32;2.47;;;1.80;;
21886;SDS011;11108;49.988;8.182;2023-04-06T07:03:57;2.47;;;1.97;;
21886;SDS011;11108;49.988;8.182;2023-04-06T07:06:22;1.63;;;1.53;;
21886;SDS011;11108;49.988;8.182;2023-04-06T07:08:47;2.60;;;1.90;;
21886;SDS011;11108;49.988;8.182;2023-04-06T07:11:13;2.70;;;1.90;;
21886;SDS011;11108;49.988;8.182;2023-04-06T07:13:38;1.90;;;1.80;;
21886;SDS011;11108;49.988;8.182;2023-04-06T07:16:03;1.80;;;1.70;;
21886;SDS011;11108;49.988;8.182;2023-04-06T07:18:28;2.17;;;1.83;;
21886;SDS011;11108;49.988;8.182;2023-04-06T07:20:54;1.97;;;1.80;;
21886;SDS011;11108;49.988;8.182;2023-04-06T07:23:19;1.90;;;1.80;;
21886;SDS011;11108;49.988;8.182;2023-04-06T07:25:44;2.57;;;2.03;;
21886;SDS011;11108;49.988;8.182;2023-04-06T07:28:10;3.30;;;1.70;;
21886;SDS011;11108;49.988;8.182;2023-04-06T07:30:36;3.57;;;1.70;;
21886;SDS011;11108;49.988;8.182;2023-04-06T07:33:01;4.83;;;2.20;;
21886;SDS011;11108;49.988;8.182;2023-04-06T07:35:27;2.80;;;1.63;;
21886;SDS011;11108;49.988;8.182;2023-04-06T07:37:53;1.80;;;1.70;;
21886;SDS011;11108;49.988;8.182;2023-04-06T07:40:18;2.80;;;1.60;;
21886;SDS011;11108;49.988;8.182;2023-04-06T07:42:44;2.80;;;1.83;;
21886;SDS011;11108;49.988;8.182;2023-04-06T07:45:10;2.67;;;1.90;;
21886;SDS011;11108;49.988;8.182;2023-04-06T07:47:35;2.00;;;1.90;;
21886;SDS011;11108;49.988;8.182;2023-04-06T07:50:00;1.60;;;1.50;;
21886;SDS011;11108;49.988;8.182;2023-04-06T07:52:26;2.10;;;1.90;;
21886;SDS011;11108;49.988;8.182;2023-04-06T07:54:51;1.90;;;1.80;;
21886;SDS011;11108;49.988;8.182;2023-04-06T07:57:16;4.10;;;2.20;;
21886;SDS011;11108;49.988;8.182;2023-04-06T07:59:43;4.33;;;1.70;;
21886;SDS011;11108;49.988;8.182;2023-04-06T08:02:08;1.80;;;1.70;;
21886;SDS011;11108;49.988;8.182;2023-04-06T08:04:33;1.60;;;1.50;;
21886;SDS011;11108;49.988;8.182;2023-04-06T08:06:58;1.97;;;1.80;;
21886;SDS011;11108;49.988;8.182;2023-04-06T08:09:24;1.77;;;1.67;;
21886;SDS011;11108;49.988;8.182;2023-04-06T08:11:49;1.50;;;1.50;;
21886;SDS011;11108;49.988;8.182;2023-04-06T08:14:14;1.73;;;1.63;;
21886;SDS011;11108;49.988;8.182;2023-04-06T08:16:41;3.27;;;1.50;;
21886;SDS011;11108;49.988;8.182;2023-04-06T08:19:06;1.50;;;1.50;;
21886;SDS011;11108;49.988;8.182;2023-04-06T08:21:34;2.70;;;1.90;;
21886;SDS011;11108;49.988;8.182;2023-04-06T08:23:59;1.90;;;1.80;;
21886;SDS011;11108;49.988;8.182;2023-04-06T08:26:25;1.90;;;1.70;;
21886;SDS011;11108;49.988;8.182;2023-04-06T08:28:51;2.33;;;2.13;;
21886;SDS011;11108;49.988;8.182;2023-04-06T08:31:16;1.63;;;1.60;;
21886;SDS011;11108;49.988;8.182;2023-04-06T08:33:41;1.97;;;1.70;;
21886;SDS011;11108;49.988;8.182;2023-04-06T08:36:07;2.57;;;1.90;;
21886;SDS011;11108;49.988;8.182;2023-04-06T08:38:32;1.83;;;1.73;;
21886;SDS011;11108;49.988;8.182;2023-04-06T08:40:58;2.03;;;1.67;;
21886;SDS011;11108;49.988;8.182;2023-04-06T08:43:23;1.57;;;1.57;;
21886;SDS011;11108;49.988;8.182;2023-04-06T08:45:49;1.70;;;1.60;;
21886;SDS011;11108;49.988;8.182;2023-04-06T08:48:15;1.53;;;1.43;;
21886;SDS011;11108;49.988;8.182;2023-04-06T08:50:40;1.70;;;1.60;;
21886;SDS011;11108;49.988;8.182;2023-04-06T08:53:06;1.70;;;1.60;;
21886;SDS011;11108;49.988;8.182;2023-04-06T08:55:33;1.77;;;1.67;;
21886;SDS011;11108;49.988;8.182;2023-04-06T08:57:58;2.63;;;1.53;;
21886;SDS011;11108;49.988;8.182;2023-04-06T09:00:24;1.83;;;1.47;;
21886;SDS011;11108;49.988;8.182;2023-04-06T09:02:50;1.93;;;1.60;;
21886;SDS011;11108;49.988;8.182;2023-04-06T09:05:17;1.60;;;1.50;;
21886;SDS011;11108;49.988;8.182;2023-04-06T09:07:43;2.30;;;2.00;;
21886;SDS011;11108;49.988;8.182;2023-04-06T09:10:09;2.13;;;1.57;;
21886;SDS011;11108;49.988;8.182;2023-04-06T09:12:35;2.10;;;1.93;;
21886;SDS011;11108;49.988;8.182;2023-04-06T09:15:00;1.90;;;1.80;;
21886;SDS011;11108;49.988;8.182;2023-04-06T09:17:30;2.00;;;1.90;;
21886;SDS011;11108;49.988;8.182;2023-04-06T09:19:57;2.93;;;1.70;;
21886;SDS011;11108;49.988;8.182;2023-04-06T09:22:23;2.03;;;1.80;;
21886;SDS011;11108;49.988;8.182;2023-04-06T09:24:51;2.10;;;2.00;;
21886;SDS011;11108;49.988;8.182;2023-04-06T09:27:16;1.97;;;1.87;;
21886;SDS011;11108;49.988;8.182;2023-04-06T09:29:42;1.60;;;1.50;;
21886;SDS011;11108;49.988;8.182;2023-04-06T09:32:08;2.80;;;1.87;;
21886;SDS011;11108;49.988;8.182;2023-04-06T09:34:36;2.10;;;2.00;;
21886;SDS011;11108;49.988;8.182;2023-04-06T09:37:11;2.20;;;1.70;;
21886;SDS011;11108;49.988;8.182;2023-04-06T09:39:36;1.70;;;1.60;;
21886;SDS011;11108;49.988;8.182;2023-04-06T09:42:02;2.13;;;1.67;;
21886;SDS011;11108;49.988;8.182;2023-04-06T09:44:27;3.30;;;2.00;;
21886;SDS011;11108;49.988;8.182;2023-04-06T09:46:53;2.43;;;1.83;;
21886;SDS011;11108;49.988;8.182;2023-04-06T09:49:18;2.17;;;2.07;;
21886;SDS011;11108;49.988;8.182;2023-04-06T09:51:49;3.33;;;1.80;;
21886;SDS011;11108;49.988;8.182;2023-04-06T09:54:18;2.70;;;1.93;;
21886;SDS011;11108;49.988;8.182;2023-04-06T09:56:49;1.80;;;1.70;;
21886;SDS011;11108;49.988;8.182;2023-04-06T09:59:18;3.10;;;2.53;;
21886;SDS011;11108;49.988;8.182;2023-04-06T10:01:46;3.20;;;2.77;;
21886;SDS011;11108;49.988;8.182;2023-04-06T10:04:21;3.00;;;2.50;;
21886;SDS011;11108;49.988;8.182;2023-04-06T10:06:51;2.50;;;2.30;;
21886;SDS011;11108;49.988;8.182;2023-04-06T10:09:18;3.00;;;2.00;;
21886;SDS011;11108;49.988;8.182;2023-04-06T10:11:43;3.00;;;2.27;;
21886;SDS011;11108;49.988;8.182;2023-04-06T10:14:09;3.13;;;2.37;;
21886;SDS011;11108;49.988;8.182;2023-04-06T10:16:36;2.20;;;2.00;;
21886;SDS011;11108;49.988;8.182;2023-04-06T10:19:04;2.57;;;2.37;;
21886;SDS011;11108;49.988;8.182;2023-04-06T10:21:32;3.73;;;2.40;;
21886;SDS011;11108;49.988;8.182;2023-04-06T10:23:59;3.83;;;1.90;;
21886;SDS011;11108;49.988;8.182;2023-04-06T10:26:24;4.43;;;2.23;;
21886;SDS011;11108;49.988;8.182;2023-04-06T10:28:49;2.47;;;2.27;;
21886;SDS011;11108;49.988;8.182;2023-04-06T10:31:15;3.93;;;2.40;;
21886;SDS011;11108;49.988;8.182;2023-04-06T10:33:59;4.37;;;2.40;;
21886;SDS011;11108;49.988;8.182;2023-04-06T10:36:26;2.87;;;2.40;;
21886;SDS011;11108;49.988;8.182;2023-04-06T10:38:56;2.97;;;2.33;;
21886;SDS011;11108;49.988;8.182;2023-04-06T10:41:22;2.43;;;2.23;;
21886;SDS011;11108;49.988;8.182;2023-04-06T10:43:54;2.57;;;2.37;;
21886;SDS011;11108;49.988;8.182;2023-04-06T10:46:24;2.77;;;2.30;;
21886;SDS011;11108;49.988;8.182;2023-04-06T10:48:49;2.90;;;2.40;;
21886;SDS011;11108;49.988;8.182;2023-04-06T10:51:16;2.80;;;2.27;;
21886;SDS011;11108;49.988;8.182;2023-04-06T10:53:42;2.60;;;2.30;;
21886;SDS011;11108;49.988;8.182;2023-04-06T10:56:12;3.87;;;2.33;;
21886;SDS011;11108;49.988;8.182;2023-04-06T10:58:37;2.50;;;2.30;;
21886;SDS011;11108;49.988;8.182;2023-04-06T11:01:03;2.47;;;2.37;;
21886;SDS011;11108;49.988;8.182;2023-04-06T11:03:28;3.47;;;2.13;;
21886;SDS011;11108;49.988;8.182;2023-04-06T11:05:54;2.50;;;2.20;;
21886;SDS011;11108;49.988;8.182;2023-04-06T11:08:26;2.37;;;2.27;;
21886;SDS011;11108;49.988;8.182;2023-04-06T11:10:51;2.67;;;2.27;;
21886;SDS011;11108;49.988;8.182;2023-04-06T11:13:16;3.63;;;2.30;;
21886;SDS011;11108;49.988;8.182;2023-04-06T11:15:42;1.60;;;1.60;;
21886;SDS011;11108;49.988;8.182;2023-04-06T11:18:07;2.30;;;2.00;;
21886;SDS011;11108;49.988;8.182;2023-04-06T11:20:32;2.00;;;1.90;;
21886;SDS011;11108;49.988;8.182;2023-04-06T11:22:58;4.00;;;2.20;;
21886;SDS011;11108;49.988;8.182;2023-04-06T11:25:24;2.00;;;1.80;;
21886;SDS011;11108;49.988;8.182;2023-04-06T11:27:51;2.23;;;2.03;;
21886;SDS011;11108;49.988;8.182;2023-04-06T11:30:16;2.33;;;2.13;;
21886;SDS011;11108;49.988;8.182;2023-04-06T11:34:45;2.50;;;1.80;;
21886;SDS011;11108;49.988;8.182;2023-04-06T11:37:11;3.27;;;2.00;;
21886;SDS011;11108;49.988;8.182;2023-04-06T11:39:38;2.60;;;1.90;;
21886;SDS011;11108;49.988;8.182;2023-04-06T11:42:04;2.83;;;1.93;;
21886;SDS011;11108;49.988;8.182;2023-04-06T11:44:34;2.00;;;1.70;;
21886;SDS011;11108;49.988;8.182;2023-04-06T11:47:00;1.83;;;1.70;;
21886;SDS011;11108;49.988;8.182;2023-04-06T11:49:30;2.03;;;1.93;;
21886;SDS011;11108;49.988;8.182;2023-04-06T11:51:56;2.00;;;1.90;;
21886;SDS011;11108;49.988;8.182;2023-04-06T11:54:34;4.30;;;1.97;;
21886;SDS011;11108;49.988;8.182;2023-04-06T11:57:00;2.20;;;2.00;;
21886;SDS011;11108;49.988;8.182;2023-04-06T11:59:25;2.93;;;1.90;;
21886;SDS011;11108;49.988;8.182;2023-04-06T12:01:52;2.10;;;2.00;;
21886;SDS011;11108;49.988;8.182;2023-04-06T12:04:18;2.30;;;2.10;;
21886;SDS011;11108;49.988;8.182;2023-04-06T12:06:43;2.23;;;2.00;;
21886;SDS011;11108;49.988;8.182;2023-04-06T12:09:08;3.20;;;2.07;;
21886;SDS011;11108;49.988;8.182;2023-04-06T12:11:33;2.43;;;2.10;;
21886;SDS011;11108;49.988;8.182;2023-04-06T12:13:59;1.90;;;1.80;;
21886;SDS011;11108;49.988;8.182;2023-04-06T12:16:26;2.30;;;2.10;;
21886;SDS011;11108;49.988;8.182;2023-04-06T12:18:51;2.77;;;2.00;;
21886;SDS011;11108;49.988;8.182;2023-04-06T12:21:17;2.60;;;2.40;;
21886;SDS011;11108;49.988;8.182;2023-04-06T12:23:42;2.27;;;1.90;;
21886;SDS011;11108;49.988;8.182;2023-04-06T12:26:07;2.50;;;2.30;;
21886;SDS011;11108;49.988;8.182;2023-04-06T12:28:32;2.33;;;2.20;;
21886;SDS011;11108;49.988;8.182;2023-04-06T12:30:57;3.10;;;2.47;;
21886;SDS011;11108;49.988;8.182;2023-04-06T12:33:23;2.23;;;1.90;;
21886;SDS011;11108;49.988;8.182;2023-04-06T12:35:48;2.60;;;2.07;;
21886;SDS011;11108;49.988;8.182;2023-04-06T12:38:13;1.87;;;1.77;;
21886;SDS011;11108;49.988;8.182;2023-04-06T12:40:39;3.20;;;2.03;;
21886;SDS011;11108;49.988;8.182;2023-04-06T12:43:04;2.10;;;1.93;;
21886;SDS011;11108;49.988;8.182;2023-04-06T12:45:30;2.73;;;1.93;;
21886;SDS011;11108;49.988;8.182;2023-04-06T12:47:55;2.10;;;1.87;;
21886;SDS011;11108;49.988;8.182;2023-04-06T12:50:21;3.77;;;2.33;;
21886;SDS011;11108;49.988;8.182;2023-04-06T12:52:46;2.20;;;2.00;;
21886;SDS011;11108;49.988;8.182;2023-04-06T12:55:12;2.23;;;2.00;;
21886;SDS011;11108;49.988;8.182;2023-04-06T12:57:37;2.33;;;2.03;;
21886;SDS011;11108;49.988;8.182;2023-04-06T13:00:02;1.80;;;1.77;;
21886;SDS011;11108;49.988;8.182;2023-04-06T13:02:29;3.83;;;2.20;;
21886;SDS011;11108;49.988;8.182;2023-04-06T13:04:54;1.90;;;1.80;;
21886;SDS011;11108;49.988;8.182;2023-04-06T13:07:20;2.27;;;2.00;;
21886;SDS011;11108;49.988;8.182;2023-04-06T13:09:45;1.93;;;1.80;;
21886;SDS011;11108;49.988;8.182;2023-04-06T13:12:12;1.90;;;1.80;;
21886;SDS011;11108;49.988;8.182;2023-04-06T13:14:37;3.40;;;1.63;;
21886;SDS011;11108;49.988;8.182;2023-04-06T13:17:04;2.20;;;2.00;;
21886;SDS011;11108;49.988;8.182;2023-04-06T13:19:29;1.83;;;1.73;;
21886;SDS011;11108;49.988;8.182;2023-04-06T13:21:56;1.70;;;1.60;;
21886;SDS011;11108;49.988;8.182;2023-04-06T13:24:21;1.90;;;1.80;;
21886;SDS011;11108;49.988;8.182;2023-04-06T13:26:48;3.90;;;1.77;;
21886;SDS011;11108;49.988;8.182;2023-04-06T13:29:13;6.53;;;1.87;;
21886;SDS011;11108;49.988;8.182;2023-04-06T13:31:38;2.10;;;1.77;;
21886;SDS011;11108;49.988;8.182;2023-04-06T13:34:04;1.80;;;1.70;;
21886;SDS011;11108;49.988;8.182;2023-04-06T13:36:29;2.00;;;1.90;;
21886;SDS011;11108;49.988;8.182;2023-04-06T13:38:55;1.70;;;1.60;;
21886;SDS011;11108;49.988;8.182;2023-04-06T13:41:21;2.07;;;1.97;;
21886;SDS011;11108;49.988;8.182;2023-04-06T13:43:47;1.93;;;1.83;;
21886;SDS011;11108;49.988;8.182;2023-04-06T13:46:12;1.90;;;1.80;;
21886;SDS011;11108;49.988;8.182;2023-04-06T13:48:37;1.40;;;1.40;;
21886;SDS011;11108;49.988;8.182;2023-04-06T13:51:09;1.63;;;1.53;;
21886;SDS011;11108;49.988;8.182;2023-04-06T13:53:34;1.73;;;1.63;;
21886;SDS011;11108;49.988;8.182;2023-04-06T13:56:00;1.87;;;1.73;;
21886;SDS011;11108;49.988;8.182;2023-04-06T13:58:25;1.73;;;1.60;;
21886;SDS011;11108;49.988;8.182;2023-04-06T14:00:50;1.50;;;1.40;;
21886;SDS011;11108;49.988;8.182;2023-04-06T14:03:16;1.47;;;1.47;;
21886;SDS011;11108;49.988;8.182;2023-04-06T14:05:41;1.60;;;1.50;;
21886;SDS011;11108;49.988;8.182;2023-04-06T14:08:06;1.73;;;1.63;;
21886;SDS011;11108;49.988;8.182;2023-04-06T14:10:31;1.50;;;1.40;;
21886;SDS011;11108;49.988;8.182;2023-04-06T14:13:01;2.07;;;1.90;;
21886;SDS011;11108;49.988;8.182;2023-04-06T14:15:26;2.57;;;1.80;;
21886;SDS011;11108;49.988;8.182;2023-04-06T14:17:52;2.67;;;1.60;;
21886;SDS011;11108;49.988;8.182;2023-04-06T14:20:18;1.77;;;1.67;;
21886;SDS011;11108;49.988;8.182;2023-04-06T14:22:43;1.77;;;1.67;;
21886;SDS011;11108;49.988;8.182;2023-04-06T14:25:08;3.10;;;1.50;;
21886;SDS011;11108;49.988;8.182;2023-04-06T14:27:34;2.90;;;1.63;;
21886;SDS011;11108;49.988;8.182;2023-04-06T14:30:00;2.67;;;1.47;;
21886;SDS011;11108;49.988;8.182;2023-04-06T14:32:25;1.80;;;1.53;;
21886;SDS011;11108;49.988;8.182;2023-04-06T14:34:51;2.07;;;1.60;;
21886;SDS011;11108;49.988;8.182;2023-04-06T14:37:16;1.83;;;1.50;;
21886;SDS011;11108;49.988;8.182;2023-04-06T14:39:42;2.70;;;1.70;;
21886;SDS011;11108;49.988;8.182;2023-04-06T14:42:07;1.53;;;1.40;;